sensor_id;sensor_type;location;lat;lon;timestamp;P1;durP1;ratioP1;P2;durP2;ratioP2
39924;SDS011;25592;49.986;11.618;2022-07-12T00:01:48;1.70;;;1.02;;
39924;SDS011;25592;49.986;11.618;2022-07-12T00:04:34;2.70;;;0.95;;
39924;SDS011;25592;49.986;11.618;2022-07-12T00:07:19;2.60;;;1.00;;
39924;SDS011;25592;49.986;11.618;2022-07-12T00:10:05;1.40;;;0.90;;
39924;SDS011;25592;49.986;11.618;2022-07-12T00:12:50;1.67;;;0.95;;
39924;SDS011;25592;49.986;11.618;2022-07-12T00:15:36;3.40;;;0.98;;
39924;SDS011;25592;49.986;11.618;2022-07-12T00:18:22;3.85;;;0.95;;
39924;SDS011;25592;49.986;11.618;2022-07-12T00:21:08;1.85;;;0.95;;
39924;SDS011;25592;49.986;11.618;2022-07-12T00:23:53;1.70;;;0.77;;
39924;SDS011;25592;49.986;11.618;2022-07-12T00:26:38;2.92;;;0.98;;
39924;SDS011;25592;49.986;11.618;2022-07-12T00:29:24;1.40;;;0.90;;
39924;SDS011;25592;49.986;11.618;2022-07-12T00:32:09;1.80;;;0.82;;
39924;SDS011;25592;49.986;11.618;2022-07-12T00:34:54;2.15;;;0.90;;
39924;SDS011;25592;49.986;11.618;2022-07-12T00:37:40;3.40;;;1.13;;
39924;SDS011;25592;49.986;11.618;2022-07-12T00:40:26;2.67;;;1.00;;
39924;SDS011;25592;49.986;11.618;2022-07-12T00:43:11;0.93;;;0.70;;
39924;SDS011;25592;49.986;11.618;2022-07-12T00:45:57;1.30;;;0.85;;
39924;SDS011;25592;49.986;11.618;2022-07-12T00:48:42;1.40;;;0.80;;
39924;SDS011;25592;49.986;11.618;2022-07-12T00:51:27;1.98;;;1.15;;
39924;SDS011;25592;49.986;11.618;2022-07-12T00:54:14;1.20;;;0.77;;
39924;SDS011;25592;49.986;11.618;2022-07-12T00:56:59;1.40;;;0.90;;
39924;SDS011;25592;49.986;11.618;2022-07-12T00:59:45;1.55;;;0.95;;
39924;SDS011;25592;49.986;11.618;2022-07-12T01:02:30;3.28;;;1.13;;
39924;SDS011;25592;49.986;11.618;2022-07-12T01:05:16;1.45;;;0.80;;
39924;SDS011;25592;49.986;11.618;2022-07-12T01:08:01;2.88;;;0.90;;
39924;SDS011;25592;49.986;11.618;2022-07-12T01:10:48;3.03;;;0.95;;
39924;SDS011;25592;49.986;11.618;2022-07-12T01:13:34;1.73;;;0.88;;
39924;SDS011;25592;49.986;11.618;2022-07-12T01:16:20;2.22;;;1.00;;
39924;SDS011;25592;49.986;11.618;2022-07-12T01:19:06;3.17;;;1.40;;
39924;SDS011;25592;49.986;11.618;2022-07-12T01:21:52;2.60;;;1.17;;
39924;SDS011;25592;49.986;11.618;2022-07-12T01:24:41;2.40;;;1.20;;
39924;SDS011;25592;49.986;11.618;2022-07-12T01:27:27;2.15;;;1.00;;
39924;SDS011;25592;49.986;11.618;2022-07-12T01:30:13;4.13;;;1.10;;
39924;SDS011;25592;49.986;11.618;2022-07-12T01:32:58;2.88;;;1.30;;
39924;SDS011;25592;49.986;11.618;2022-07-12T01:35:45;1.90;;;1.00;;
39924;SDS011;25592;49.986;11.618;2022-07-12T01:38:32;2.63;;;1.02;;
39924;SDS011;25592;49.986;11.618;2022-07-12T01:41:17;1.80;;;1.00;;
39924;SDS011;25592;49.986;11.618;2022-07-12T01:44:03;2.42;;;0.95;;
39924;SDS011;25592;49.986;11.618;2022-07-12T01:46:48;2.67;;;1.15;;
39924;SDS011;25592;49.986;11.618;2022-07-12T01:49:33;2.03;;;1.08;;
39924;SDS011;25592;49.986;11.618;2022-07-12T01:52:19;2.47;;;1.10;;
39924;SDS011;25592;49.986;11.618;2022-07-12T01:55:04;3.47;;;1.10;;
39924;SDS011;25592;49.986;11.618;2022-07-12T01:57:50;2.10;;;1.10;;
39924;SDS011;25592;49.986;11.618;2022-07-12T02:00:37;3.17;;;1.73;;
39924;SDS011;25592;49.986;11.618;2022-07-12T02:03:22;4.57;;;1.50;;
39924;SDS011;25592;49.986;11.618;2022-07-12T02:06:08;2.63;;;1.08;;
39924;SDS011;25592;49.986;11.618;2022-07-12T02:08:53;2.63;;;1.13;;
39924;SDS011;25592;49.986;11.618;2022-07-12T02:11:39;3.45;;;1.17;;
39924;SDS011;25592;49.986;11.618;2022-07-12T02:14:26;2.00;;;1.15;;
39924;SDS011;25592;49.986;11.618;2022-07-12T02:17:11;2.20;;;1.30;;
39924;SDS011;25592;49.986;11.618;2022-07-12T02:19:57;3.17;;;1.05;;
39924;SDS011;25592;49.986;11.618;2022-07-12T02:22:42;2.47;;;1.00;;
39924;SDS011;25592;49.986;11.618;2022-07-12T02:25:28;2.80;;;1.08;;
39924;SDS011;25592;49.986;11.618;2022-07-12T02:28:13;4.22;;;1.35;;
39924;SDS011;25592;49.986;11.618;2022-07-12T02:30:59;3.97;;;1.30;;
39924;SDS011;25592;49.986;11.618;2022-07-12T02:33:44;2.55;;;1.38;;
39924;SDS011;25592;49.986;11.618;2022-07-12T02:36:29;3.30;;;1.42;;
39924;SDS011;25592;49.986;11.618;2022-07-12T02:39:15;1.80;;;1.10;;
39924;SDS011;25592;49.986;11.618;2022-07-12T02:42:00;4.28;;;2.08;;
39924;SDS011;25592;49.986;11.618;2022-07-12T02:44:46;2.63;;;1.40;;
39924;SDS011;25592;49.986;11.618;2022-07-12T02:47:31;3.28;;;1.40;;
39924;SDS011;25592;49.986;11.618;2022-07-12T02:50:16;3.15;;;1.20;;
39924;SDS011;25592;49.986;11.618;2022-07-12T02:53:03;3.75;;;1.42;;
39924;SDS011;25592;49.986;11.618;2022-07-12T02:55:49;2.65;;;1.13;;
39924;SDS011;25592;49.986;11.618;2022-07-12T02:58:34;4.63;;;1.65;;
39924;SDS011;25592;49.986;11.618;2022-07-12T03:01:20;2.90;;;1.40;;
39924;SDS011;25592;49.986;11.618;2022-07-12T03:04:05;2.20;;;1.20;;
39924;SDS011;25592;49.986;11.618;2022-07-12T03:06:50;1.90;;;1.10;;
39924;SDS011;25592;49.986;11.618;2022-07-12T03:09:36;3.00;;;1.30;;
39924;SDS011;25592;49.986;11.618;2022-07-12T03:12:21;3.35;;;1.90;;
39924;SDS011;25592;49.986;11.618;2022-07-12T03:15:06;2.40;;;1.27;;
39924;SDS011;25592;49.986;11.618;2022-07-12T03:17:52;3.17;;;1.40;;
39924;SDS011;25592;49.986;11.618;2022-07-12T03:20:37;2.92;;;1.13;;
39924;SDS011;25592;49.986;11.618;2022-07-12T03:23:23;2.97;;;1.45;;
39924;SDS011;25592;49.986;11.618;2022-07-12T03:26:08;3.53;;;1.30;;
39924;SDS011;25592;49.986;11.618;2022-07-12T03:28:53;2.63;;;1.40;;
39924;SDS011;25592;49.986;11.618;2022-07-12T03:31:39;3.03;;;1.40;;
39924;SDS011;25592;49.986;11.618;2022-07-12T03:34:24;3.63;;;1.70;;
39924;SDS011;25592;49.986;11.618;2022-07-12T03:37:09;2.38;;;1.33;;
39924;SDS011;25592;49.986;11.618;2022-07-12T03:39:55;1.90;;;1.15;;
39924;SDS011;25592;49.986;11.618;2022-07-12T03:42:40;2.63;;;1.33;;
39924;SDS011;25592;49.986;11.618;2022-07-12T03:45:26;2.45;;;1.42;;
39924;SDS011;25592;49.986;11.618;2022-07-12T03:48:12;2.17;;;1.30;;
39924;SDS011;25592;49.986;11.618;2022-07-12T03:50:57;3.15;;;1.33;;
39924;SDS011;25592;49.986;11.618;2022-07-12T03:53:42;2.65;;;1.35;;
39924;SDS011;25592;49.986;11.618;2022-07-12T03:56:28;3.95;;;1.30;;
39924;SDS011;25592;49.986;11.618;2022-07-12T03:59:32;3.42;;;1.52;;
39924;SDS011;25592;49.986;11.618;2022-07-12T04:02:17;2.58;;;1.30;;
39924;SDS011;25592;49.986;11.618;2022-07-12T04:05:05;1.88;;;1.15;;
39924;SDS011;25592;49.986;11.618;2022-07-12T04:07:52;3.75;;;1.35;;
39924;SDS011;25592;49.986;11.618;2022-07-12T04:10:38;2.30;;;1.30;;
39924;SDS011;25592;49.986;11.618;2022-07-12T04:13:23;3.55;;;1.48;;
39924;SDS011;25592;49.986;11.618;2022-07-12T04:16:08;3.65;;;1.92;;
39924;SDS011;25592;49.986;11.618;2022-07-12T04:18:54;7.57;;;2.60;;
39924;SDS011;25592;49.986;11.618;2022-07-12T04:21:40;5.50;;;2.55;;
39924;SDS011;25592;49.986;11.618;2022-07-12T04:24:26;13.70;;;4.10;;
39924;SDS011;25592;49.986;11.618;2022-07-12T04:27:12;5.50;;;2.90;;
39924;SDS011;25592;49.986;11.618;2022-07-12T04:29:58;3.53;;;2.40;;
39924;SDS011;25592;49.986;11.618;2022-07-12T04:32:47;9.45;;;2.55;;
39924;SDS011;25592;49.986;11.618;2022-07-12T04:35:33;5.00;;;3.17;;
39924;SDS011;25592;49.986;11.618;2022-07-12T04:38:19;5.28;;;3.20;;
39924;SDS011;25592;49.986;11.618;2022-07-12T04:41:04;6.75;;;3.15;;
39924;SDS011;25592;49.986;11.618;2022-07-12T04:43:50;1.50;;;0.90;;
39924;SDS011;25592;49.986;11.618;2022-07-12T04:46:35;5.60;;;2.90;;
39924;SDS011;25592;49.986;11.618;2022-07-12T04:49:21;4.53;;;2.70;;
39924;SDS011;25592;49.986;11.618;2022-07-12T04:52:06;5.07;;;2.55;;
39924;SDS011;25592;49.986;11.618;2022-07-12T04:54:52;4.78;;;2.33;;
39924;SDS011;25592;49.986;11.618;2022-07-12T04:57:37;2.97;;;2.25;;
39924;SDS011;25592;49.986;11.618;2022-07-12T05:00:22;5.15;;;2.90;;
39924;SDS011;25592;49.986;11.618;2022-07-12T05:03:08;3.40;;;2.40;;
39924;SDS011;25592;49.986;11.618;2022-07-12T05:05:54;3.47;;;2.40;;
39924;SDS011;25592;49.986;11.618;2022-07-12T05:08:39;5.13;;;2.78;;
39924;SDS011;25592;49.986;11.618;2022-07-12T05:11:25;4.30;;;3.08;;
39924;SDS011;25592;49.986;11.618;2022-07-12T05:14:10;4.25;;;2.28;;
39924;SDS011;25592;49.986;11.618;2022-07-12T05:16:55;4.13;;;2.63;;
39924;SDS011;25592;49.986;11.618;2022-07-12T05:19:41;5.45;;;2.90;;
39924;SDS011;25592;49.986;11.618;2022-07-12T05:22:26;6.57;;;2.95;;
39924;SDS011;25592;49.986;11.618;2022-07-12T05:25:12;4.15;;;2.55;;
39924;SDS011;25592;49.986;11.618;2022-07-12T05:27:57;4.28;;;3.10;;
39924;SDS011;25592;49.986;11.618;2022-07-12T05:30:43;5.07;;;2.30;;
39924;SDS011;25592;49.986;11.618;2022-07-12T05:33:29;5.38;;;2.47;;
39924;SDS011;25592;49.986;11.618;2022-07-12T05:36:15;3.38;;;2.20;;
39924;SDS011;25592;49.986;11.618;2022-07-12T05:39:00;6.20;;;3.10;;
39924;SDS011;25592;49.986;11.618;2022-07-12T05:41:45;5.22;;;3.38;;
39924;SDS011;25592;49.986;11.618;2022-07-12T05:44:33;5.38;;;2.95;;
39924;SDS011;25592;49.986;11.618;2022-07-12T05:47:19;4.78;;;3.15;;
39924;SDS011;25592;49.986;11.618;2022-07-12T05:50:04;5.15;;;2.75;;
39924;SDS011;25592;49.986;11.618;2022-07-12T05:52:50;3.60;;;2.45;;
39924;SDS011;25592;49.986;11.618;2022-07-12T05:55:54;3.55;;;2.40;;
39924;SDS011;25592;49.986;11.618;2022-07-12T05:58:40;4.72;;;2.55;;
39924;SDS011;25592;49.986;11.618;2022-07-12T06:01:25;5.30;;;2.70;;
39924;SDS011;25592;49.986;11.618;2022-07-12T06:04:10;4.72;;;2.67;;
39924;SDS011;25592;49.986;11.618;2022-07-12T06:06:56;3.30;;;2.20;;
39924;SDS011;25592;49.986;11.618;2022-07-12T06:09:41;4.10;;;2.90;;
39924;SDS011;25592;49.986;11.618;2022-07-12T06:12:27;4.22;;;2.85;;
39924;SDS011;25592;49.986;11.618;2022-07-12T06:15:12;4.38;;;2.70;;
39924;SDS011;25592;49.986;11.618;2022-07-12T06:17:57;5.38;;;2.83;;
39924;SDS011;25592;49.986;11.618;2022-07-12T06:20:43;5.80;;;2.92;;
39924;SDS011;25592;49.986;11.618;2022-07-12T06:23:28;4.93;;;3.33;;
39924;SDS011;25592;49.986;11.618;2022-07-12T06:26:14;6.55;;;2.47;;
39924;SDS011;25592;49.986;11.618;2022-07-12T06:29:00;9.70;;;3.13;;
39924;SDS011;25592;49.986;11.618;2022-07-12T06:31:45;5.60;;;2.40;;
39924;SDS011;25592;49.986;11.618;2022-07-12T06:34:30;3.45;;;2.13;;
39924;SDS011;25592;49.986;11.618;2022-07-12T06:37:16;4.70;;;2.00;;
39924;SDS011;25592;49.986;11.618;2022-07-12T06:40:01;4.28;;;2.20;;
39924;SDS011;25592;49.986;11.618;2022-07-12T06:42:47;4.13;;;2.50;;
39924;SDS011;25592;49.986;11.618;2022-07-12T06:45:34;3.53;;;2.20;;
39924;SDS011;25592;49.986;11.618;2022-07-12T06:48:19;4.25;;;2.20;;
39924;SDS011;25592;49.986;11.618;2022-07-12T06:51:04;4.78;;;2.17;;
39924;SDS011;25592;49.986;11.618;2022-07-12T06:53:50;4.13;;;2.38;;
39924;SDS011;25592;49.986;11.618;2022-07-12T06:56:35;3.47;;;2.10;;
39924;SDS011;25592;49.986;11.618;2022-07-12T06:59:21;3.28;;;2.30;;
39924;SDS011;25592;49.986;11.618;2022-07-12T07:02:06;3.42;;;2.10;;
39924;SDS011;25592;49.986;11.618;2022-07-12T07:04:52;5.28;;;1.55;;
39924;SDS011;25592;49.986;11.618;2022-07-12T07:07:38;7.45;;;2.25;;
39924;SDS011;25592;49.986;11.618;2022-07-12T07:10:23;3.70;;;2.30;;
39924;SDS011;25592;49.986;11.618;2022-07-12T07:13:08;3.95;;;2.25;;
39924;SDS011;25592;49.986;11.618;2022-07-12T07:15:55;10.02;;;2.42;;
39924;SDS011;25592;49.986;11.618;2022-07-12T07:18:40;4.50;;;2.00;;
39924;SDS011;25592;49.986;11.618;2022-07-12T07:21:26;9.93;;;1.95;;
39924;SDS011;25592;49.986;11.618;2022-07-12T07:24:11;6.43;;;1.65;;
39924;SDS011;25592;49.986;11.618;2022-07-12T07:26:56;5.00;;;1.40;;
39924;SDS011;25592;49.986;11.618;2022-07-12T07:29:42;3.10;;;2.00;;
39924;SDS011;25592;49.986;11.618;2022-07-12T07:32:46;3.35;;;1.52;;
39924;SDS011;25592;49.986;11.618;2022-07-12T07:35:39;3.28;;;2.17;;
39924;SDS011;25592;49.986;11.618;2022-07-12T07:38:24;2.72;;;1.70;;
39924;SDS011;25592;49.986;11.618;2022-07-12T07:41:10;4.65;;;2.20;;
39924;SDS011;25592;49.986;11.618;2022-07-12T07:43:55;5.45;;;1.63;;
39924;SDS011;25592;49.986;11.618;2022-07-12T07:46:41;10.07;;;2.05;;
39924;SDS011;25592;49.986;11.618;2022-07-12T07:49:26;2.65;;;1.77;;
39924;SDS011;25592;49.986;11.618;2022-07-12T07:52:11;6.72;;;1.77;;
39924;SDS011;25592;49.986;11.618;2022-07-12T07:54:57;4.75;;;1.70;;
39924;SDS011;25592;49.986;11.618;2022-07-12T07:57:42;2.58;;;1.60;;
39924;SDS011;25592;49.986;11.618;2022-07-12T08:00:28;5.00;;;1.60;;
39924;SDS011;25592;49.986;11.618;2022-07-12T08:03:13;3.10;;;1.83;;
39924;SDS011;25592;49.986;11.618;2022-07-12T08:05:59;2.33;;;1.30;;
39924;SDS011;25592;49.986;11.618;2022-07-12T08:08:45;3.58;;;1.50;;
39924;SDS011;25592;49.986;11.618;2022-07-12T08:11:50;2.42;;;1.20;;
39924;SDS011;25592;49.986;11.618;2022-07-12T08:14:36;4.50;;;1.52;;
39924;SDS011;25592;49.986;11.618;2022-07-12T08:17:21;1.55;;;0.90;;
39924;SDS011;25592;49.986;11.618;2022-07-12T08:20:07;2.55;;;1.13;;
39924;SDS011;25592;49.986;11.618;2022-07-12T08:23:12;1.42;;;1.00;;
39924;SDS011;25592;49.986;11.618;2022-07-12T08:25:58;3.15;;;0.82;;
39924;SDS011;25592;49.986;11.618;2022-07-12T08:28:43;1.60;;;0.88;;
39924;SDS011;25592;49.986;11.618;2022-07-12T08:31:28;1.52;;;0.80;;
39924;SDS011;25592;49.986;11.618;2022-07-12T08:34:14;3.50;;;1.25;;
39924;SDS011;25592;49.986;11.618;2022-07-12T08:36:59;2.80;;;1.00;;
39924;SDS011;25592;49.986;11.618;2022-07-12T08:39:45;1.85;;;1.15;;
39924;SDS011;25592;49.986;11.618;2022-07-12T08:42:30;2.88;;;0.95;;
39924;SDS011;25592;49.986;11.618;2022-07-12T08:45:16;2.22;;;1.17;;
39924;SDS011;25592;49.986;11.618;2022-07-12T08:48:02;2.42;;;0.93;;
39924;SDS011;25592;49.986;11.618;2022-07-12T08:50:59;2.10;;;1.00;;
39924;SDS011;25592;49.986;11.618;2022-07-12T08:54:12;0.90;;;0.80;;
39924;SDS011;25592;49.986;11.618;2022-07-12T08:56:57;2.20;;;0.75;;
39924;SDS011;25592;49.986;11.618;2022-07-12T08:59:46;1.75;;;1.00;;
39924;SDS011;25592;49.986;11.618;2022-07-12T09:02:42;1.35;;;0.82;;
39924;SDS011;25592;49.986;11.618;2022-07-12T09:05:38;1.33;;;0.82;;
39924;SDS011;25592;49.986;11.618;2022-07-12T09:08:38;2.95;;;1.08;;
39924;SDS011;25592;49.986;11.618;2022-07-12T09:11:24;2.65;;;1.08;;
39924;SDS011;25592;49.986;11.618;2022-07-12T09:14:09;2.65;;;1.10;;
39924;SDS011;25592;49.986;11.618;2022-07-12T09:17:07;9.50;;;2.22;;
39924;SDS011;25592;49.986;11.618;2022-07-12T09:19:58;2.03;;;0.88;;
39924;SDS011;25592;49.986;11.618;2022-07-12T09:22:53;2.97;;;1.05;;
39924;SDS011;25592;49.986;11.618;2022-07-12T09:25:43;2.05;;;1.25;;
39924;SDS011;25592;49.986;11.618;2022-07-12T09:28:29;3.78;;;1.10;;
39924;SDS011;25592;49.986;11.618;2022-07-12T09:31:15;1.88;;;1.08;;
39924;SDS011;25592;49.986;11.618;2022-07-12T09:34:01;2.25;;;0.90;;
39924;SDS011;25592;49.986;11.618;2022-07-12T09:37:06;1.40;;;1.10;;
39924;SDS011;25592;49.986;11.618;2022-07-12T09:39:52;2.13;;;1.00;;
39924;SDS011;25592;49.986;11.618;2022-07-12T09:42:39;1.17;;;0.82;;
39924;SDS011;25592;49.986;11.618;2022-07-12T09:45:25;1.88;;;1.17;;
39924;SDS011;25592;49.986;11.618;2022-07-12T09:48:10;1.42;;;0.75;;
39924;SDS011;25592;49.986;11.618;2022-07-12T09:50:57;0.98;;;0.80;;
39924;SDS011;25592;49.986;11.618;2022-07-12T09:53:43;1.58;;;0.80;;
39924;SDS011;25592;49.986;11.618;2022-07-12T09:56:30;1.35;;;0.88;;
39924;SDS011;25592;49.986;11.618;2022-07-12T09:59:20;2.00;;;1.02;;
39924;SDS011;25592;49.986;11.618;2022-07-12T10:02:09;2.67;;;0.73;;
39924;SDS011;25592;49.986;11.618;2022-07-12T10:05:00;2.33;;;0.88;;
39924;SDS011;25592;49.986;11.618;2022-07-12T10:07:49;2.08;;;1.35;;
39924;SDS011;25592;49.986;11.618;2022-07-12T10:10:35;2.08;;;0.82;;
39924;SDS011;25592;49.986;11.618;2022-07-12T10:13:21;1.25;;;0.80;;
39924;SDS011;25592;49.986;11.618;2022-07-12T10:16:07;1.70;;;0.90;;
39924;SDS011;25592;49.986;11.618;2022-07-12T10:22:18;2.97;;;0.90;;
39924;SDS011;25592;49.986;11.618;2022-07-12T10:25:05;1.05;;;0.80;;
39924;SDS011;25592;49.986;11.618;2022-07-12T10:28:10;0.90;;;0.80;;
39924;SDS011;25592;49.986;11.618;2022-07-12T10:30:56;1.75;;;0.90;;
39924;SDS011;25592;49.986;11.618;2022-07-12T10:33:41;1.77;;;1.00;;
39924;SDS011;25592;49.986;11.618;2022-07-12T10:36:27;1.23;;;0.70;;
39924;SDS011;25592;49.986;11.618;2022-07-12T10:39:14;1.58;;;1.05;;
39924;SDS011;25592;49.986;11.618;2022-07-12T10:45:08;2.22;;;1.00;;
39924;SDS011;25592;49.986;11.618;2022-07-12T10:47:59;0.73;;;0.60;;
39924;SDS011;25592;49.986;11.618;2022-07-12T10:53:33;1.38;;;0.90;;
39924;SDS011;25592;49.986;11.618;2022-07-12T10:56:25;1.65;;;1.00;;
39924;SDS011;25592;49.986;11.618;2022-07-12T10:59:14;2.40;;;0.70;;
39924;SDS011;25592;49.986;11.618;2022-07-12T11:02:00;0.90;;;0.70;;
39924;SDS011;25592;49.986;11.618;2022-07-12T11:04:57;1.80;;;0.90;;
39924;SDS011;25592;49.986;11.618;2022-07-12T11:07:42;2.45;;;0.80;;
39924;SDS011;25592;49.986;11.618;2022-07-12T11:10:28;0.98;;;0.70;;
39924;SDS011;25592;49.986;11.618;2022-07-12T11:13:20;3.47;;;0.90;;
39924;SDS011;25592;49.986;11.618;2022-07-12T11:16:09;2.65;;;0.65;;
39924;SDS011;25592;49.986;11.618;2022-07-12T11:18:55;2.70;;;0.90;;
39924;SDS011;25592;49.986;11.618;2022-07-12T11:21:44;1.52;;;0.90;;
39924;SDS011;25592;49.986;11.618;2022-07-12T11:24:31;7.95;;;1.23;;
39924;SDS011;25592;49.986;11.618;2022-07-12T11:27:17;0.85;;;0.80;;
39924;SDS011;25592;49.986;11.618;2022-07-12T11:30:04;7.00;;;1.10;;
39924;SDS011;25592;49.986;11.618;2022-07-12T11:32:50;0.75;;;0.70;;
39924;SDS011;25592;49.986;11.618;2022-07-12T11:35:39;2.78;;;0.90;;
39924;SDS011;25592;49.986;11.618;2022-07-12T11:38:29;1.52;;;0.90;;
39924;SDS011;25592;49.986;11.618;2022-07-12T11:41:23;1.05;;;0.70;;
39924;SDS011;25592;49.986;11.618;2022-07-12T11:44:09;0.95;;;0.70;;
39924;SDS011;25592;49.986;11.618;2022-07-12T11:46:54;3.22;;;1.02;;
39924;SDS011;25592;49.986;11.618;2022-07-12T11:49:46;1.67;;;1.00;;
39924;SDS011;25592;49.986;11.618;2022-07-12T11:52:34;0.98;;;0.63;;
39924;SDS011;25592;49.986;11.618;2022-07-12T11:55:20;2.45;;;0.90;;
39924;SDS011;25592;49.986;11.618;2022-07-12T11:58:06;0.90;;;0.73;;
39924;SDS011;25592;49.986;11.618;2022-07-12T12:00:52;2.47;;;0.80;;
39924;SDS011;25592;49.986;11.618;2022-07-12T12:03:42;1.10;;;0.70;;
39924;SDS011;25592;49.986;11.618;2022-07-12T12:06:31;1.25;;;0.70;;
39924;SDS011;25592;49.986;11.618;2022-07-12T12:09:16;2.22;;;1.10;;
39924;SDS011;25592;49.986;11.618;2022-07-12T12:12:01;1.02;;;0.80;;
39924;SDS011;25592;49.986;11.618;2022-07-12T12:14:47;1.17;;;0.63;;
39924;SDS011;25592;49.986;11.618;2022-07-12T12:17:35;2.78;;;0.90;;
39924;SDS011;25592;49.986;11.618;2022-07-12T12:23:15;1.63;;;1.00;;
39924;SDS011;25592;49.986;11.618;2022-07-12T12:26:21;1.98;;;0.70;;
39924;SDS011;25592;49.986;11.618;2022-07-12T12:29:08;1.83;;;0.80;;
39924;SDS011;25592;49.986;11.618;2022-07-12T12:31:57;1.00;;;0.70;;
39924;SDS011;25592;49.986;11.618;2022-07-12T12:35:04;1.77;;;0.80;;
39924;SDS011;25592;49.986;11.618;2022-07-12T12:40:49;1.20;;;0.70;;
39924;SDS011;25592;49.986;11.618;2022-07-12T12:43:36;1.15;;;0.90;;
39924;SDS011;25592;49.986;11.618;2022-07-12T12:46:22;1.48;;;0.80;;
39924;SDS011;25592;49.986;11.618;2022-07-12T12:49:07;1.92;;;0.88;;
39924;SDS011;25592;49.986;11.618;2022-07-12T12:51:53;0.85;;;0.68;;
39924;SDS011;25592;49.986;11.618;2022-07-12T12:54:40;1.92;;;0.90;;
39924;SDS011;25592;49.986;11.618;2022-07-12T12:57:26;0.95;;;0.70;;
39924;SDS011;25592;49.986;11.618;2022-07-12T13:00:11;2.08;;;1.35;;
39924;SDS011;25592;49.986;11.618;2022-07-12T13:02:58;3.10;;;0.80;;
39924;SDS011;25592;49.986;11.618;2022-07-12T13:05:44;1.17;;;0.80;;
39924;SDS011;25592;49.986;11.618;2022-07-12T13:08:30;1.20;;;0.90;;
39924;SDS011;25592;49.986;11.618;2022-07-12T13:11:15;2.65;;;1.25;;
39924;SDS011;25592;49.986;11.618;2022-07-12T13:14:03;2.45;;;0.75;;
39924;SDS011;25592;49.986;11.618;2022-07-12T13:16:48;0.75;;;0.70;;
39924;SDS011;25592;49.986;11.618;2022-07-12T13:19:34;0.63;;;0.60;;
39924;SDS011;25592;49.986;11.618;2022-07-12T13:22:19;1.52;;;0.90;;
39924;SDS011;25592;49.986;11.618;2022-07-12T13:25:05;1.58;;;0.80;;
39924;SDS011;25592;49.986;11.618;2022-07-12T13:27:52;0.60;;;0.60;;
39924;SDS011;25592;49.986;11.618;2022-07-12T13:30:37;1.10;;;0.73;;
39924;SDS011;25592;49.986;11.618;2022-07-12T13:33:23;1.75;;;0.70;;
39924;SDS011;25592;49.986;11.618;2022-07-12T13:36:09;4.60;;;0.82;;
39924;SDS011;25592;49.986;11.618;2022-07-12T13:38:54;0.73;;;0.70;;
39924;SDS011;25592;49.986;11.618;2022-07-12T13:41:39;2.25;;;0.80;;
39924;SDS011;25592;49.986;11.618;2022-07-12T13:44:25;1.88;;;0.70;;
39924;SDS011;25592;49.986;11.618;2022-07-12T13:47:10;1.35;;;0.80;;
39924;SDS011;25592;49.986;11.618;2022-07-12T13:49:55;1.88;;;0.82;;
39924;SDS011;25592;49.986;11.618;2022-07-12T13:52:43;1.17;;;0.82;;
39924;SDS011;25592;49.986;11.618;2022-07-12T13:55:29;2.58;;;0.80;;
39924;SDS011;25592;49.986;11.618;2022-07-12T13:58:16;0.80;;;0.70;;
39924;SDS011;25592;49.986;11.618;2022-07-12T14:01:01;1.95;;;0.70;;
39924;SDS011;25592;49.986;11.618;2022-07-12T14:03:47;1.25;;;0.55;;
39924;SDS011;25592;49.986;11.618;2022-07-12T14:06:32;1.45;;;0.70;;
39924;SDS011;25592;49.986;11.618;2022-07-12T14:09:17;2.20;;;0.85;;
39924;SDS011;25592;49.986;11.618;2022-07-12T14:12:03;10.95;;;1.17;;
39924;SDS011;25592;49.986;11.618;2022-07-12T14:14:49;1.77;;;0.80;;
39924;SDS011;25592;49.986;11.618;2022-07-12T14:17:53;6.60;;;0.82;;
39924;SDS011;25592;49.986;11.618;2022-07-12T14:20:38;0.70;;;0.70;;
39924;SDS011;25592;49.986;11.618;2022-07-12T14:23:24;1.85;;;0.85;;
39924;SDS011;25592;49.986;11.618;2022-07-12T14:26:09;1.50;;;0.70;;
39924;SDS011;25592;49.986;11.618;2022-07-12T14:28:55;1.75;;;0.95;;
39924;SDS011;25592;49.986;11.618;2022-07-12T14:31:40;1.35;;;0.90;;
39924;SDS011;25592;49.986;11.618;2022-07-12T14:34:26;1.55;;;0.90;;
39924;SDS011;25592;49.986;11.618;2022-07-12T14:37:11;1.52;;;0.80;;
39924;SDS011;25592;49.986;11.618;2022-07-12T14:39:57;1.02;;;0.80;;
39924;SDS011;25592;49.986;11.618;2022-07-12T14:42:42;1.70;;;0.80;;
39924;SDS011;25592;49.986;11.618;2022-07-12T14:45:29;0.85;;;0.70;;
39924;SDS011;25592;49.986;11.618;2022-07-12T14:48:14;1.38;;;0.70;;
39924;SDS011;25592;49.986;11.618;2022-07-12T14:51:00;6.38;;;0.80;;
39924;SDS011;25592;49.986;11.618;2022-07-12T14:53:45;0.85;;;0.60;;
39924;SDS011;25592;49.986;11.618;2022-07-12T14:56:33;1.45;;;1.10;;
39924;SDS011;25592;49.986;11.618;2022-07-12T14:59:18;1.27;;;0.65;;
39924;SDS011;25592;49.986;11.618;2022-07-12T15:02:04;1.75;;;1.00;;
39924;SDS011;25592;49.986;11.618;2022-07-12T15:04:49;0.90;;;0.70;;
39924;SDS011;25592;49.986;11.618;2022-07-12T15:07:35;1.20;;;0.73;;
39924;SDS011;25592;49.986;11.618;2022-07-12T15:10:21;1.33;;;0.70;;
39924;SDS011;25592;49.986;11.618;2022-07-12T15:13:06;1.33;;;0.80;;
39924;SDS011;25592;49.986;11.618;2022-07-12T15:15:51;3.55;;;0.75;;
39924;SDS011;25592;49.986;11.618;2022-07-12T15:18:37;1.67;;;0.68;;
39924;SDS011;25592;49.986;11.618;2022-07-12T15:21:22;0.88;;;0.70;;
39924;SDS011;25592;49.986;11.618;2022-07-12T15:24:08;2.05;;;0.80;;
39924;SDS011;25592;49.986;11.618;2022-07-12T15:26:54;2.20;;;0.82;;
39924;SDS011;25592;49.986;11.618;2022-07-12T15:29:39;2.35;;;0.77;;
39924;SDS011;25592;49.986;11.618;2022-07-12T15:32:26;2.85;;;0.98;;
39924;SDS011;25592;49.986;11.618;2022-07-12T15:35:12;1.40;;;0.70;;
39924;SDS011;25592;49.986;11.618;2022-07-12T15:37:58;2.53;;;1.42;;
39924;SDS011;25592;49.986;11.618;2022-07-12T15:40:43;2.28;;;0.60;;
39924;SDS011;25592;49.986;11.618;2022-07-12T15:43:29;2.65;;;0.80;;
39924;SDS011;25592;49.986;11.618;2022-07-12T15:46:14;1.42;;;0.80;;
39924;SDS011;25592;49.986;11.618;2022-07-12T15:49:00;0.77;;;0.75;;
39924;SDS011;25592;49.986;11.618;2022-07-12T15:51:45;1.73;;;0.70;;
39924;SDS011;25592;49.986;11.618;2022-07-12T15:54:49;1.58;;;0.82;;
39924;SDS011;25592;49.986;11.618;2022-07-12T15:57:35;1.88;;;0.80;;
39924;SDS011;25592;49.986;11.618;2022-07-12T16:00:21;0.60;;;0.60;;
39924;SDS011;25592;49.986;11.618;2022-07-12T16:03:06;2.42;;;0.82;;
39924;SDS011;25592;49.986;11.618;2022-07-12T16:05:54;2.30;;;0.80;;
39924;SDS011;25592;49.986;11.618;2022-07-12T16:08:41;1.08;;;0.80;;
39924;SDS011;25592;49.986;11.618;2022-07-12T16:11:31;1.15;;;0.73;;
39924;SDS011;25592;49.986;11.618;2022-07-12T16:14:16;1.45;;;0.70;;
39924;SDS011;25592;49.986;11.618;2022-07-12T16:19:54;3.80;;;0.70;;
39924;SDS011;25592;49.986;11.618;2022-07-12T16:22:39;1.08;;;0.65;;
39924;SDS011;25592;49.986;11.618;2022-07-12T16:25:25;2.47;;;0.98;;
39924;SDS011;25592;49.986;11.618;2022-07-12T16:28:10;2.17;;;0.68;;
39924;SDS011;25592;49.986;11.618;2022-07-12T16:30:56;0.57;;;0.57;;
39924;SDS011;25592;49.986;11.618;2022-07-12T16:33:41;1.08;;;0.70;;
39924;SDS011;25592;49.986;11.618;2022-07-12T16:36:27;1.90;;;0.75;;
39924;SDS011;25592;49.986;11.618;2022-07-12T16:39:13;4.00;;;0.82;;
39924;SDS011;25592;49.986;11.618;2022-07-12T16:41:58;0.60;;;0.60;;
39924;SDS011;25592;49.986;11.618;2022-07-12T16:44:43;1.85;;;0.82;;
39924;SDS011;25592;49.986;11.618;2022-07-12T16:47:29;1.20;;;0.90;;